Time;durP1;ratioP1;P1;durP2;ratioP2;P2;SDS_P1;SDS_P2;PMS_P1;PMS_P2;Temp;Humidity;BMP_temperature;BMP_pressure;BME280_temperature;BME280_humidity;BME280_pressure;Samples;Min_cycle;Max_cycle;Signal;HPM_P1;HPM_P2
2022/10/14 00:01:16;;;;;;;22.38;15.45;;;;;;;14.41;81.99;98510.81;7387990;19;20204;-74
2022/10/14 00:03:43;;;;;;;23.77;16.30;;;;;;;14.39;82.22;98504.84;7387204;19;20035;-73
2022/10/14 00:06:16;;;;;;;19.83;13.98;;;;;;;14.36;82.19;98507.88;7391411;19;20031;-73
2022/10/14 00:08:43;;;;;;;24.25;14.73;;;;;;;14.40;82.27;98506.53;7391862;19;20028;-73
2022/10/14 00:11:22;;;;;;;18.92;14.68;;;;;;;14.39;82.24;98502.19;7387814;19;20038;-73
2022/10/14 00:13:49;;;;;;;23.58;16.40;;;;;;;14.42;82.29;98493.84;7388408;19;20018;-73
2022/10/14 00:16:22;;;;;;;22.30;16.38;;;;;;;14.41;82.16;98494.84;7388744;19;20359;-73
2022/10/14 00:18:48;;;;;;;;;;;;;;;14.40;82.12;98493.22;7384572;19;20014;-73
2022/10/14 00:21:15;;;;;;;22.80;15.80;;;;;;;14.36;82.40;98499.88;7391249;19;19923;-73
2022/10/14 00:23:43;;;;;;;21.35;15.40;;;;;;;14.33;82.43;98492.25;7390709;19;20025;-73
2022/10/14 00:26:21;;;;;;;20.38;14.18;;;;;;;14.39;82.12;98499.53;7386950;19;20023;-73
2022/10/14 00:28:48;;;;;;;29.20;15.02;;;;;;;14.40;82.26;98493.22;7385535;19;20011;-73
2022/10/14 00:31:15;;;;;;;27.13;15.38;;;;;;;14.37;82.12;98493.53;7389543;19;20553;-73
2022/10/14 00:33:46;;;;;;;20.20;15.40;;;;;;;14.31;82.40;98496.09;7384887;19;20014;-73
2022/10/14 00:36:15;;;;;;;22.63;16.52;;;;;;;14.29;82.41;98496.25;7387421;19;20357;-73
2022/10/14 00:38:44;;;;;;;27.52;17.73;;;;;;;14.07;82.87;98492.59;7390807;19;20043;-73
2022/10/14 00:41:14;;;;;;;25.30;16.77;;;;;;;14.10;82.96;98499.38;7388657;19;20018;-73
2022/10/14 00:43:58;;;;;;;25.40;17.35;;;;;;;14.12;83.01;98492.88;7386891;19;20030;-73
2022/10/14 00:46:27;;;;;;;27.15;17.90;;;;;;;14.19;82.73;98498.31;7387482;19;20707;-73
2022/10/14 00:49:03;;;;;;;23.50;16.52;;;;;;;14.28;82.26;98502.59;7386963;19;20014;-73
2022/10/14 00:51:29;;;;;;;23.40;15.80;;;;;;;14.28;82.07;98492.78;7387717;19;20018;-73
2022/10/14 00:53:56;;;;;;;25.20;16.80;;;;;;;14.26;82.20;98501.94;7386024;19;20039;-73
2022/10/14 00:56:25;;;;;;;24.75;17.70;;;;;;;14.26;82.22;98493.97;7386592;19;20026;-73
2022/10/14 00:58:52;;;;;;;23.98;16.90;;;;;;;14.13;82.80;98499.84;7389034;19;20057;-73
2022/10/14 01:01:19;;;;;;;28.00;18.13;;;;;;;14.10;82.78;98499.38;7386233;19;20014;-73
2022/10/14 01:03:46;;;;;;;24.33;17.00;;;;;;;14.06;82.96;98496.25;7386124;19;20026;-73
2022/10/14 01:06:33;;;;;;;25.45;17.05;;;;;;;14.21;82.74;98496.31;7384207;19;20018;-73
2022/10/14 01:09:26;;;;;;;26.50;17.67;;;;;;;14.24;82.54;98506.59;7384802;19;20010;-73
2022/10/14 01:12:13;;;;;;;25.42;16.73;;;;;;;14.29;82.33;98493.59;7390528;19;20481;-73
2022/10/14 01:15:06;;;;;;;28.25;17.40;;;;;;;14.34;82.39;98496.56;7386941;19;20508;-73
2022/10/14 01:17:38;;;;;;;25.55;16.60;;;;;;;14.35;82.16;98489.41;7386098;19;20014;-73
2022/10/14 01:20:54;;;;;;;27.67;15.20;;;;;;;14.38;82.16;98491.72;7382833;19;20018;-73
2022/10/14 01:24:04;;;;;;;23.95;17.05;;;;;;;14.39;82.06;98494.19;7383061;19;20461;-74
2022/10/14 01:26:52;;;;;;;24.27;17.40;;;;;;;14.37;82.24;98485.56;7383534;19;20038;-73
2022/10/14 01:29:21;;;;;;;24.23;16.02;;;;;;;14.38;82.21;98487.22;7384418;19;20504;-73
2022/10/14 01:31:55;;;;;;;26.48;15.98;;;;;;;14.36;82.34;98475.94;7385253;19;20025;-73
2022/10/14 01:34:27;;;;;;;19.83;15.48;;;;;;;14.37;82.22;98476.75;7384235;19;20015;-73
2022/10/14 01:36:58;;;;;;;20.38;15.77;;;;;;;14.38;82.23;98489.88;7385785;19;20712;-73
2022/10/14 01:39:36;;;;;;;21.45;14.73;;;;;;;14.39;82.21;98480.88;7385219;19;20014;-73
2022/10/14 01:42:07;;;;;;;20.58;15.10;;;;;;;14.45;82.31;98477.50;7384525;19;20317;-73
2022/10/14 01:44:36;;;;;;;33.92;15.45;;;;;;;14.49;82.15;98475.34;7385160;19;20146;-73
2022/10/14 01:47:12;;;;;;;22.15;14.63;;;;;;;14.50;82.03;98482.31;7386251;19;20421;-73
2022/10/14 01:49:44;;;;;;;21.75;15.70;;;;;;;14.52;81.84;98471.50;7384624;19;20378;-74
2022/10/14 01:52:15;;;;;;;25.90;15.35;;;;;;;14.52;81.63;98474.16;7384040;19;20822;-73
2022/10/14 01:54:43;;;;;;;20.67;15.23;;;;;;;14.50;81.30;98485.78;7383550;19;20010;-73
2022/10/14 01:57:14;;;;;;;20.15;14.25;;;;;;;14.40;81.09;98479.91;7384015;19;20007;-73
2022/10/14 01:59:43;;;;;;;21.25;14.82;;;;;;;14.37;81.30;98477.56;7384575;19;20025;-73
2022/10/14 02:02:11;;;;;;;20.15;14.20;;;;;;;14.37;81.48;98485.56;7385751;19;20600;-73
2022/10/14 02:04:39;;;;;;;22.05;14.57;;;;;;;14.34;81.58;98472.59;7385329;19;20022;-73
2022/10/14 02:07:18;;;;;;;27.80;15.75;;;;;;;14.31;81.85;98475.63;7386817;19;20014;-73
2022/10/14 02:09:58;;;;;;;19.25;14.80;;;;;;;14.29;81.86;98472.31;7383634;19;20014;-73
2022/10/14 02:12:37;;;;;;;24.13;15.82;;;;;;;14.18;82.13;98475.38;7384533;19;20015;-73
2022/10/14 02:15:10;;;;;;;18.85;15.00;;;;;;;14.14;82.41;98484.72;7384403;19;20366;-73
2022/10/14 02:17:52;;;;;;;21.80;15.30;;;;;;;14.22;82.15;98482.84;7383573;19;20092;-73
2022/10/14 02:20:28;;;;;;;22.80;14.88;;;;;;;14.25;82.04;98481.66;7387303;19;20014;-73
2022/10/14 02:23:01;;;;;;;19.75;15.50;;;;;;;14.31;81.79;98486.28;7384761;19;20018;-73
2022/10/14 02:25:33;;;;;;;24.42;15.93;;;;;;;14.28;81.65;98481.31;7381754;19;20014;-73
2022/10/14 02:28:01;;;;;;;19.88;15.18;;;;;;;14.32;81.68;98479.09;7385555;19;20543;-73
2022/10/14 02:30:30;;;;;;;21.77;14.70;;;;;;;14.29;81.82;98482.94;7383288;19;20014;-73
2022/10/14 02:32:59;;;;;;;23.65;15.50;;;;;;;14.28;81.69;98482.13;7384702;19;20078;-73
2022/10/14 02:35:27;;;;;;;21.13;14.88;;;;;;;14.28;81.53;98482.13;7386043;19;20036;-73
2022/10/14 02:37:55;;;;;;;18.90;13.80;;;;;;;14.29;81.54;98480.28;7384925;19;20010;-73
2022/10/14 02:40:43;;;;;;;18.83;14.82;;;;;;;14.27;81.66;98471.69;7383052;19;20343;-73
2022/10/14 02:43:10;;;;;;;18.25;13.65;;;;;;;14.23;81.75;98462.38;7380229;19;20375;-73
2022/10/14 02:45:38;;;;;;;16.67;13.32;;;;;;;14.23;81.59;98468.53;7384208;19;20023;-73
2022/10/14 02:48:05;;;;;;;16.25;12.82;;;;;;;14.23;81.44;98470.38;7378529;19;20034;-73
2022/10/14 02:50:32;;;;;;;17.15;12.52;;;;;;;14.19;81.56;98477.03;7382469;19;20111;-73
2022/10/14 02:52:59;;;;;;;18.98;12.15;;;;;;;14.19;81.70;98467.25;7384976;19;20014;-73
2022/10/14 02:55:25;;;;;;;23.48;12.65;;;;;;;14.17;81.92;98471.09;7386826;19;20034;-73
2022/10/14 02:57:52;;;;;;;14.43;12.27;;;;;;;14.18;81.94;98470.06;7379317;19;20014;-73
2022/10/14 03:00:19;;;;;;;15.10;11.10;;;;;;;14.20;82.07;98460.06;7382966;19;20035;-73
2022/10/14 03:02:46;;;;;;;16.73;9.73;;;;;;;14.19;81.82;98455.75;7383180;19;20106;-73
2022/10/14 03:05:15;;;;;;;15.07;9.80;;;;;;;14.14;82.18;98458.97;7380243;19;20025;-73
2022/10/14 03:07:42;;;;;;;22.10;10.05;;;;;;;14.12;82.24;98445.00;7382419;19;20081;-73
2022/10/14 03:10:11;;;;;;;12.93;9.27;;;;;;;14.14;82.26;98437.66;7384430;19;20025;-73
2022/10/14 03:12:38;;;;;;;12.50;9.40;;;;;;;14.13;82.27;98430.69;7382131;19;20477;-73
2022/10/14 03:15:13;;;;;;;14.45;8.13;;;;;;;14.04;82.39;98442.38;7381940;19;20014;-73
2022/10/14 03:17:39;;;;;;;8.75;7.28;;;;;;;14.07;82.38;98436.72;7380950;19;20021;-73
2022/10/14 03:20:06;;;;;;;11.75;7.63;;;;;;;14.07;82.21;98433.22;7382433;19;20075;-73
2022/10/14 03:22:41;;;;;;;12.18;7.75;;;;;;;14.07;82.12;98430.56;7383181;19;20350;-73
2022/10/14 03:25:08;;;;;;;12.25;6.80;;;;;;;14.11;82.19;98423.88;7384264;19;20030;-73
2022/10/14 03:27:41;;;;;;;14.23;7.10;;;;;;;14.07;82.19;98420.75;7382866;19;20026;-73
2022/10/14 03:30:11;;;;;;;12.25;7.32;;;;;;;14.03;82.43;98416.78;7383226;19;20074;-73
2022/10/14 03:32:49;;;;;;;13.27;8.55;;;;;;;14.03;82.28;98407.00;7382272;19;20019;-73
2022/10/14 03:35:18;;;;;;;14.82;10.05;;;;;;;14.03;82.50;98409.66;7381099;19;20032;-73
2022/10/14 03:37:47;;;;;;;16.15;11.05;;;;;;;14.03;82.44;98399.00;7379899;19;20007;-73
2022/10/14 03:40:17;;;;;;;15.75;11.70;;;;;;;14.04;82.33;98403.31;7381880;19;20014;-73
2022/10/14 03:42:44;;;;;;;15.43;12.23;;;;;;;14.05;82.27;98396.97;7386780;19;20027;-73
2022/10/14 03:45:13;;;;;;;20.77;12.20;;;;;;;14.07;82.51;98394.16;7391268;19;20553;-72
2022/10/14 03:47:40;;;;;;;16.90;11.23;;;;;;;14.04;82.54;98390.00;7387097;19;20085;-73
2022/10/14 03:50:06;;;;;;;16.35;10.77;;;;;;;14.05;82.54;98390.84;7388223;19;20477;-73
2022/10/14 03:52:42;;;;;;;15.85;11.13;;;;;;;14.05;82.46;98383.69;7391028;19;20018;-73
2022/10/14 03:55:28;;;;;;;13.60;11.48;;;;;;;14.02;82.45;98384.03;7390226;19;20011;-73
2022/10/14 03:57:55;;;;;;;17.63;10.45;;;;;;;13.94;82.54;98386.75;7387243;19;20019;-73
2022/10/14 04:00:22;;;;;;;15.75;10.88;;;;;;;13.96;82.55;98378.63;7390370;19;20339;-73
2022/10/14 04:03:00;;;;;;;12.75;9.55;;;;;;;13.86;82.92;98381.50;7390834;19;20048;-73
2022/10/14 04:05:33;;;;;;;22.02;11.23;;;;;;;13.79;82.64;98380.53;7386005;19;20039;-73
2022/10/14 04:08:07;;;;;;;14.77;10.75;;;;;;;13.81;82.84;98367.91;7388755;19;20531;-73
2022/10/14 04:10:35;;;;;;;16.75;10.27;;;;;;;13.88;82.70;98360.88;7391402;19;20086;-72
2022/10/14 04:13:02;;;;;;;13.50;10.43;;;;;;;13.94;82.62;98362.81;7390101;19;20026;-73
2022/10/14 04:15:35;;;;;;;15.18;10.40;;;;;;;13.95;82.34;98364.47;7383353;19;20018;-73
2022/10/14 04:18:10;;;;;;;17.33;9.82;;;;;;;13.89;82.63;98370.50;7386996;19;20351;-73
2022/10/14 04:20:39;;;;;;;16.92;10.27;;;;;;;13.78;82.78;98368.25;7385951;19;20097;-73
2022/10/14 04:23:07;;;;;;;20.13;11.20;;;;;;;13.82;82.66;98358.91;7385614;19;20014;-73
2022/10/14 04:25:37;;;;;;;18.08;11.15;;;;;;;13.87;82.55;98363.69;7389705;19;20036;-73
2022/10/14 04:28:05;;;;;;;20.45;11.35;;;;;;;13.85;82.60;98353.25;7389825;19;20427;-73
2022/10/14 04:30:48;;;;;;;18.75;11.75;;;;;;;13.90;82.52;98352.69;7388634;19;20014;-73
2022/10/14 04:33:21;;;;;;;17.90;12.05;;;;;;;13.94;82.47;98356.69;7386653;19;20015;-73
2022/10/14 04:35:48;;;;;;;22.10;12.55;;;;;;;13.96;82.48;98360.81;7386142;19;20014;-73
2022/10/14 04:38:22;;;;;;;15.68;11.93;;;;;;;13.99;82.64;98349.81;7385126;19;20390;-72
2022/10/14 04:40:56;;;;;;;19.70;12.48;;;;;;;13.99;82.26;98355.13;7385475;19;20030;-73
2022/10/14 04:43:24;;;;;;;15.02;11.65;;;;;;;13.99;82.31;98346.34;7385941;19;20017;-73
2022/10/14 04:45:53;;;;;;;15.57;10.43;;;;;;;14.01;82.43;98352.31;7385951;19;20015;-73
2022/10/14 04:48:24;;;;;;;;;;;;;;;13.97;82.17;98340.34;7389292;19;20019;-72
2022/10/14 04:50:52;;;;;;;15.90;10.05;;;;;;;13.91;82.43;98344.56;7385906;19;19933;-73
2022/10/14 04:53:39;;;;;;;13.88;9.85;;;;;;;13.96;82.52;98333.41;7382162;19;20029;-73
2022/10/14 04:56:18;;;;;;;16.58;10.55;;;;;;;13.97;82.36;98340.34;7382018;19;20382;-73
2022/10/14 04:58:53;;;;;;;16.55;10.70;;;;;;;13.93;82.40;98341.72;7386084;19;20018;-73
2022/10/14 05:01:28;;;;;;;17.35;11.20;;;;;;;13.91;82.60;98341.91;7385466;19;20022;-73
2022/10/14 05:03:59;;;;;;;14.32;9.85;;;;;;;13.90;82.68;98336.75;7388141;19;20019;-72
2022/10/14 05:06:28;;;;;;;14.93;10.18;;;;;;;13.93;82.60;98331.91;7383556;19;20026;-72
2022/10/14 05:08:55;;;;;;;16.63;10.27;;;;;;;13.88;82.55;98326.31;7381215;19;20026;-72
2022/10/14 05:11:22;;;;;;;14.38;10.13;;;;;;;13.91;82.45;98319.81;7383875;19;20086;-72
2022/10/14 05:13:53;;;;;;;15.10;10.48;;;;;;;13.91;82.48;98325.13;7384002;19;20048;-72
2022/10/14 05:16:21;;;;;;;11.75;9.85;;;;;;;13.93;82.20;98321.28;7387624;19;20388;-72
2022/10/14 05:18:48;;;;;;;15.25;9.65;;;;;;;13.78;82.63;98320.41;7388398;19;20010;-72
2022/10/14 05:21:15;;;;;;;17.70;11.80;;;;;;;13.84;82.61;98314.34;7386073;19;20049;-72
2022/10/14 05:24:09;;;;;;;15.23;10.20;;;;;;;13.88;82.42;98312.19;7382975;19;20027;-73
2022/10/14 05:26:37;;;;;;;15.43;10.90;;;;;;;13.87;82.56;98299.88;7381360;19;20010;-72
2022/10/14 05:29:09;;;;;;;16.60;11.45;;;;;;;13.90;82.43;98297.72;7384018;19;20006;-72
2022/10/14 05:31:37;;;;;;;18.88;12.15;;;;;;;13.87;82.38;98302.53;7384157;19;20029;-72
2022/10/14 05:34:19;;;;;;;15.77;11.23;;;;;;;13.84;82.49;98295.75;7386257;19;20089;-72
2022/10/14 05:36:46;;;;;;;18.30;11.75;;;;;;;13.85;82.48;98300.06;7385020;19;20023;-72
2022/10/14 05:39:14;;;;;;;17.23;10.80;;;;;;;13.83;82.42;98286.13;7384697;19;20036;-72
2022/10/14 05:41:40;;;;;;;16.27;11.23;;;;;;;13.82;82.50;98287.09;7380537;19;20545;-72
2022/10/14 05:44:10;;;;;;;13.52;10.43;;;;;;;13.82;82.66;98281.78;7384121;19;20022;-73
2022/10/14 05:46:37;;;;;;;14.55;10.90;;;;;;;13.82;82.84;98279.97;7381596;19;20021;-72
2022/10/14 05:49:04;;;;;;;16.65;11.20;;;;;;;13.85;82.48;98286.78;7386009;19;20481;-72
2022/10/14 05:51:34;;;;;;;19.63;11.13;;;;;;;13.84;82.66;98287.75;7387405;19;20462;-73
2022/10/14 05:54:10;;;;;;;17.15;11.27;;;;;;;13.83;82.81;98281.63;7386860;19;20014;-72
2022/10/14 05:56:39;;;;;;;14.18;10.93;;;;;;;13.82;82.53;98284.44;7384589;19;20383;-72
2022/10/14 05:59:08;;;;;;;13.65;11.00;;;;;;;13.80;82.69;98282.00;7386390;19;20034;-72
2022/10/14 06:01:36;;;;;;;19.10;10.27;;;;;;;13.81;82.81;98293.44;7383798;19;20014;-73
2022/10/14 06:04:03;;;;;;;14.90;11.30;;;;;;;13.83;82.95;98297.59;7384039;19;20035;-73
2022/10/14 06:06:31;;;;;;;15.35;11.30;;;;;;;13.87;82.98;98290.06;7387085;19;20036;-73
2022/10/14 06:08:57;;;;;;;22.42;12.75;;;;;;;13.93;82.95;98284.06;7387587;19;20025;-73
2022/10/14 06:11:24;;;;;;;22.75;13.20;;;;;;;13.96;82.91;98286.34;7386515;19;20031;-73
2022/10/14 06:13:51;;;;;;;17.05;11.32;;;;;;;13.99;82.79;98280.66;7387211;19;20549;-73
2022/10/14 06:16:18;;;;;;;18.65;12.02;;;;;;;13.94;82.84;98283.03;7383791;19;20037;-73
2022/10/14 06:18:45;;;;;;;15.70;11.07;;;;;;;13.99;82.71;98279.84;7381619;19;20030;-73
2022/10/14 06:21:16;;;;;;;16.83;11.20;;;;;;;14.05;82.85;98290.56;7383122;19;20029;-73
2022/10/14 06:23:43;;;;;;;17.50;11.30;;;;;;;14.14;82.65;98287.84;7383994;19;20027;-73
2022/10/14 06:26:10;;;;;;;18.00;12.32;;;;;;;14.16;82.59;98291.16;7382548;19;20082;-73
2022/10/14 06:28:37;;;;;;;13.93;11.07;;;;;;;14.16;82.47;98296.47;7384694;19;20114;-73
2022/10/14 06:31:04;;;;;;;20.33;11.85;;;;;;;14.18;82.23;98297.13;7383694;19;20129;-73
2022/10/14 06:33:31;;;;;;;14.18;11.35;;;;;;;14.19;82.33;98301.41;7382469;19;20018;-73
2022/10/14 06:36:00;;;;;;;17.00;11.50;;;;;;;14.23;82.15;98298.22;7383327;19;20018;-73
2022/10/14 06:38:27;;;;;;;13.95;10.60;;;;;;;14.26;82.29;98297.88;7385902;19;20014;-73
2022/10/14 06:40:54;;;;;;;18.23;11.98;;;;;;;14.24;82.25;98293.72;7386528;19;20375;-73
2022/10/14 06:43:21;;;;;;;19.02;11.93;;;;;;;14.27;82.10;98291.56;7388411;19;20047;-73
2022/10/14 06:45:48;;;;;;;19.75;11.82;;;;;;;14.23;82.05;98292.09;7386362;19;20011;-73
2022/10/14 06:48:15;;;;;;;17.65;12.07;;;;;;;14.22;81.96;98293.09;7383739;19;21275;-73
2022/10/14 06:50:41;;;;;;;17.05;11.60;;;;;;;14.27;81.88;98290.72;7384227;19;20018;-73
2022/10/14 06:53:08;;;;;;;18.92;11.82;;;;;;;14.27;81.96;98296.06;7383610;19;20017;-73
2022/10/14 06:55:35;;;;;;;19.63;12.88;;;;;;;14.33;82.10;98294.50;7388865;19;20129;-72
2022/10/14 06:58:01;;;;;;;20.33;12.02;;;;;;;14.34;82.29;98296.13;7386517;19;20010;-72
2022/10/14 07:00:28;;;;;;;17.00;12.02;;;;;;;14.43;82.13;98295.88;7387013;19;20407;-73
2022/10/14 07:02:58;;;;;;;16.98;11.32;;;;;;;14.51;82.25;98294.97;7387205;19;20007;-72
2022/10/14 07:05:25;;;;;;;15.23;11.02;;;;;;;14.55;82.27;98285.63;7382466;19;20010;-73
2022/10/14 07:07:52;;;;;;;15.35;11.30;;;;;;;14.59;82.08;98294.91;7383850;19;20485;-73
2022/10/14 07:10:19;;;;;;;17.15;12.55;;;;;;;14.67;82.16;98294.00;7384983;19;20007;-73
2022/10/14 07:12:46;;;;;;;17.98;11.80;;;;;;;14.76;81.78;98287.56;7381223;19;20015;-73
2022/10/14 07:15:13;;;;;;;15.75;11.77;;;;;;;14.75;81.66;98291.25;7386043;19;20383;-73
2022/10/14 07:17:39;;;;;;;15.00;11.20;;;;;;;14.80;81.54;98286.19;7391132;19;20018;-73
2022/10/14 07:20:06;;;;;;;17.20;11.73;;;;;;;14.85;81.17;98291.78;7390587;19;20055;-73
2022/10/14 07:22:35;;;;;;;16.45;11.35;;;;;;;14.83;81.03;98288.47;7386207;19;20038;-73
2022/10/14 07:25:05;;;;;;;16.30;11.70;;;;;;;14.82;81.07;98286.81;7389426;19;20043;-73
2022/10/14 07:27:36;;;;;;;16.10;11.77;;;;;;;14.82;80.84;98284.16;7391294;19;20132;-73
2022/10/14 07:30:04;;;;;;;16.80;11.15;;;;;;;14.82;80.75;98285.97;7393817;19;20093;-72
2022/10/14 07:32:35;;;;;;;14.85;10.70;;;;;;;14.81;80.72;98285.16;7395212;19;20014;-73
2022/10/14 07:35:02;;;;;;;16.07;10.50;;;;;;;14.81;80.61;98290.50;7390977;19;20732;-72
2022/10/14 07:37:29;;;;;;;20.67;10.70;;;;;;;14.77;80.72;98283.91;7390394;19;20258;-72
2022/10/14 07:39:56;;;;;;;15.90;10.25;;;;;;;14.77;80.96;98293.69;7392938;19;20026;-73
2022/10/14 07:42:22;;;;;;;15.60;10.00;;;;;;;14.66;80.93;98293.16;7389347;19;20014;-73
2022/10/14 07:44:49;;;;;;;12.07;9.75;;;;;;;14.76;81.31;98302.72;7389666;19;20669;-73
2022/10/14 07:47:16;;;;;;;14.93;11.32;;;;;;;14.84;81.18;98298.09;7394675;19;20014;-73
2022/10/14 07:49:43;;;;;;;15.43;11.23;;;;;;;14.87;81.34;98305.72;7392648;19;20030;-73
2022/10/14 07:52:09;;;;;;;15.52;10.80;;;;;;;15.07;81.20;98306.00;7394049;19;20038;-72
2022/10/14 07:54:36;;;;;;;12.18;10.20;;;;;;;15.15;80.86;98313.06;7391589;19;20014;-73
2022/10/14 07:57:03;;;;;;;11.45;9.88;;;;;;;15.31;80.66;98307.50;7389809;19;20050;-73
2022/10/14 07:59:30;;;;;;;15.15;10.63;;;;;;;15.40;80.44;98302.88;7391191;19;20581;-72
2022/10/14 08:01:56;;;;;;;13.88;10.15;;;;;;;15.50;80.03;98300.72;7391909;19;20010;-72
2022/10/14 08:04:24;;;;;;;15.57;10.88;;;;;;;15.51;79.93;98304.25;7390797;19;20014;-73
2022/10/14 08:06:52;;;;;;;16.25;9.93;;;;;;;15.67;79.91;98304.00;7391215;19;20047;-72
2022/10/14 08:09:19;;;;;;;12.93;9.13;;;;;;;15.81;80.03;98302.31;7392183;19;20019;-72
2022/10/14 08:11:46;;;;;;;20.85;10.57;;;;;;;15.92;79.55;98295.63;7389748;19;20078;-72
2022/10/14 08:14:13;;;;;;;15.85;11.05;;;;;;;15.94;79.52;98298.94;7388450;19;20015;-73
2022/10/14 08:16:40;;;;;;;11.77;8.43;;;;;;;15.94;78.87;98285.59;7391571;19;20044;-73
2022/10/14 08:19:09;;;;;;;11.48;8.30;;;;;;;15.89;78.54;98288.03;7390923;19;20026;-72
2022/10/14 08:21:40;;;;;;;15.73;9.85;;;;;;;15.74;78.72;98290.75;7388811;19;20017;-72
2022/10/14 08:24:07;;;;;;;13.52;8.65;;;;;;;15.68;78.82;98294.97;7390006;19;20014;-73
2022/10/14 08:26:36;;;;;;;12.35;8.02;;;;;;;15.69;78.86;98288.69;7389809;19;20387;-73
2022/10/14 08:29:10;;;;;;;19.75;9.65;;;;;;;15.59;78.87;98286.28;7387683;19;20331;-72
2022/10/14 08:31:37;;;;;;;13.82;10.15;;;;;;;15.64;79.15;98285.72;7388963;19;20058;-73
2022/10/14 08:34:03;;;;;;;13.07;9.27;;;;;;;15.81;79.32;98280.97;7388377;19;20018;-72
2022/10/14 08:36:30;;;;;;;20.10;9.52;;;;;;;15.93;78.68;98282.13;7389466;19;20018;-73
2022/10/14 08:38:57;;;;;;;18.25;8.65;;;;;;;15.95;78.15;98277.38;7390956;19;20345;-73
2022/10/14 08:41:45;;;;;;;10.57;8.38;;;;;;;15.76;78.53;98280.72;7389966;19;20022;-72
2022/10/14 08:44:44;;;;;;;11.52;8.00;;;;;;;15.75;78.69;98274.56;7388157;19;20051;-72
2022/10/14 08:47:14;;;;;;;13.88;8.98;;;;;;;15.72;78.85;98272.28;7388593;19;20478;-72
2022/10/14 08:50:18;;;;;;;10.48;8.27;;;;;;;15.65;78.74;98268.69;7385908;19;20081;-72
2022/10/14 08:53:05;;;;;;;11.18;8.20;;;;;;;15.63;79.04;98269.91;7389718;19;20026;-72
2022/10/14 08:55:38;;;;;;;11.55;8.27;;;;;;;15.76;78.75;98270.03;7391170;19;20007;-72
2022/10/14 08:58:10;;;;;;;11.85;8.57;;;;;;;15.59;79.21;98275.63;7388538;19;20026;-72
2022/10/14 09:00:40;;;;;;;15.32;8.80;;;;;;;15.40;79.49;98270.88;7390945;19;20019;-72
2022/10/14 09:03:15;;;;;;;11.70;8.55;;;;;;;15.48;79.33;98275.28;7387195;19;20022;-72
2022/10/14 09:05:42;;;;;;;14.35;9.02;;;;;;;15.55;79.29;98274.31;7388070;19;20018;-72
2022/10/14 09:08:13;;;;;;;11.90;8.68;;;;;;;15.56;79.53;98269.81;7390062;19;20018;-72
2022/10/14 09:10:41;;;;;;;13.13;9.43;;;;;;;15.77;79.67;98272.53;7388664;19;20018;-72
2022/10/14 09:13:33;;;;;;;22.35;10.02;;;;;;;15.85;79.45;98265.41;7386199;19;20022;-72
2022/10/14 09:16:05;;;;;;;12.10;8.90;;;;;;;16.04;78.91;98264.75;7388150;19;20014;-72
2022/10/14 09:18:37;;;;;;;11.57;8.88;;;;;;;16.09;78.67;98264.16;7387139;19;20022;-72
2022/10/14 09:21:22;;;;;;;20.95;8.70;;;;;;;16.24;78.06;98268.41;7385162;19;20022;-72
2022/10/14 09:24:19;;;;;;;13.68;8.40;;;;;;;16.09;77.95;98265.00;7387674;19;20023;-71
2022/10/14 09:26:49;;;;;;;13.57;7.70;;;;;;;16.10;78.01;98265.81;7388038;19;20018;-72
2022/10/14 09:29:26;;;;;;;13.45;8.15;;;;;;;16.11;77.78;98256.78;7388951;19;20031;-72
2022/10/14 09:31:56;;;;;;;11.13;7.45;;;;;;;16.14;77.82;98259.91;7388765;19;20018;-72
2022/10/14 09:34:29;;;;;;;11.80;7.25;;;;;;;16.26;77.61;98259.38;7386127;19;20015;-72
2022/10/14 09:36:58;;;;;;;10.95;7.38;;;;;;;16.29;77.71;98257.13;7387661;19;20034;-72
2022/10/14 09:39:25;;;;;;;11.00;7.82;;;;;;;16.45;77.29;98261.31;7385373;19;20050;-72
2022/10/14 09:41:52;;;;;;;7.68;6.88;;;;;;;16.69;76.81;98257.34;7386002;19;20021;-72
2022/10/14 09:44:24;;;;;;;13.23;6.60;;;;;;;16.62;76.37;98248.50;7388275;19;20022;-72
2022/10/14 09:46:55;;;;;;;7.53;5.50;;;;;;;16.63;76.07;98240.28;7390317;19;20354;-72
2022/10/14 09:49:32;;;;;;;10.40;6.53;;;;;;;16.76;76.17;98241.38;7387910;19;20025;-72
2022/10/14 09:52:01;;;;;;;8.95;6.47;;;;;;;16.83;75.94;98234.25;7384568;19;20034;-72
2022/10/14 09:54:29;;;;;;;8.68;5.38;;;;;;;16.68;75.81;98227.16;7387453;19;20014;-71
2022/10/14 09:56:58;;;;;;;15.63;6.32;;;;;;;16.55;75.34;98231.59;7386666;19;20478;-72
2022/10/14 09:59:25;;;;;;;9.10;5.63;;;;;;;16.29;75.92;98229.59;7384630;19;20489;-72
2022/10/14 10:01:53;;;;;;;7.43;5.60;;;;;;;16.28;76.57;98228.78;7383763;19;20039;-72
2022/10/14 10:04:45;;;;;;;9.70;5.93;;;;;;;16.28;77.00;98226.13;7386329;19;20019;-72
2022/10/14 10:07:29;;;;;;;6.25;5.53;;;;;;;16.17;76.95;98227.50;7388241;19;20022;-72
2022/10/14 10:09:58;;;;;;;10.50;5.28;;;;;;;16.15;77.18;98234.84;7388840;19;20042;-72
2022/10/14 10:12:33;;;;;;;7.45;5.53;;;;;;;16.29;76.81;98221.59;7385670;19;20018;-72
2022/10/14 10:15:03;;;;;;;15.95;6.07;;;;;;;16.31;77.03;98217.72;7382365;19;20466;-72
2022/10/14 10:17:32;;;;;;;12.80;6.45;;;;;;;16.29;77.35;98221.59;7385896;19;20391;-71
2022/10/14 10:20:18;;;;;;;11.00;6.72;;;;;;;16.42;77.12;98208.31;7389593;19;20015;-72
2022/10/14 10:22:45;;;;;;;8.68;6.05;;;;;;;16.55;76.74;98208.41;7386418;19;20031;-72
2022/10/14 10:25:12;;;;;;;12.20;5.90;;;;;;;16.72;76.32;98203.56;7389650;19;20031;-72
2022/10/14 10:27:47;;;;;;;7.13;5.90;;;;;;;16.78;76.29;98202.78;7385137;19;20022;-72
2022/10/14 10:30:23;;;;;;;9.98;5.40;;;;;;;16.73;75.67;98197.19;7384395;19;20014;-72
2022/10/14 10:33:06;;;;;;;9.43;5.97;;;;;;;16.89;75.68;98196.84;7383467;19;20014;-72
2022/10/14 10:36:07;;;;;;;7.18;5.35;;;;;;;16.99;75.47;98188.47;7388393;19;20010;-72
2022/10/14 10:38:56;;;;;;;9.13;5.93;;;;;;;17.00;75.28;98189.28;7388892;19;20015;-72
2022/10/14 10:41:45;;;;;;;6.68;5.28;;;;;;;16.99;75.44;98188.47;7386132;19;20023;-72
2022/10/14 10:44:39;;;;;;;9.68;5.75;;;;;;;16.98;75.56;98178.81;7386414;19;20064;-72
2022/10/14 10:47:12;;;;;;;11.77;6.05;;;;;;;16.98;75.41;98175.28;7385161;19;20018;-72
2022/10/14 10:49:48;;;;;;;10.15;6.22;;;;;;;16.93;75.23;98172.41;7383872;19;20022;-72
2022/10/14 10:52:46;;;;;;;7.13;5.15;;;;;;;17.07;75.27;98169.56;7389753;19;20082;-72
2022/10/14 10:55:31;;;;;;;9.48;6.28;;;;;;;17.23;75.48;98163.00;7397065;19;20043;-72
2022/10/14 10:58:07;;;;;;;7.15;5.75;;;;;;;17.48;75.15;98157.06;7394653;19;20118;-72
2022/10/14 11:00:50;;;;;;;9.88;6.20;;;;;;;17.67;74.24;98156.25;7395868;19;20021;-72
2022/10/14 11:03:41;;;;;;;10.07;6.28;;;;;;;17.44;74.53;98151.31;7388278;19;20019;-72
2022/10/14 11:12:29;;;;;;;11.25;6.22;;;;;;;17.27;74.06;98152.72;7392665;19;20050;-72
2022/10/14 11:15:20;;;;;;;8.27;5.65;;;;;;;17.18;74.32;98141.41;7390875;19;20523;-72
2022/10/14 11:17:48;;;;;;;11.02;5.10;;;;;;;17.22;72.79;98140.00;7390862;19;20970;-72
2022/10/14 11:20:35;;;;;;;7.28;5.78;;;;;;;17.40;72.98;98130.53;7389834;19;20022;-72
2022/10/14 11:23:30;;;;;;;11.45;5.03;;;;;;;17.38;72.30;98128.06;7389876;19;20089;-72
2022/10/14 11:26:19;;;;;;;9.27;5.15;;;;;;;17.43;72.91;98132.78;7394933;19;20010;-72
2022/10/14 11:28:54;;;;;;;8.57;5.45;;;;;;;17.27;72.96;98124.16;7389532;19;20031;-72
2022/10/14 11:31:27;;;;;;;10.13;6.30;;;;;;;17.00;73.42;98133.16;7392374;19;20015;-72
2022/10/14 11:34:09;;;;;;;11.30;6.03;;;;;;;16.91;74.35;98127.19;7390178;19;20026;-72
2022/10/14 11:36:43;;;;;;;15.27;6.05;;;;;;;16.88;74.81;98132.94;7387661;19;20019;-72
2022/10/14 11:39:29;;;;;;;7.95;6.20;;;;;;;16.74;75.68;98131.22;7390072;19;20014;-72
2022/10/14 11:42:37;;;;;;;10.43;6.65;;;;;;;16.66;76.96;98138.38;7391524;19;20031;-72
2022/10/14 11:45:41;;;;;;;14.10;7.30;;;;;;;16.57;77.53;98136.09;7388548;19;20407;-72
2022/10/14 11:48:14;;;;;;;13.68;7.22;;;;;;;16.67;77.42;98128.53;7389331;19;20010;-72
2022/10/14 11:50:50;;;;;;;10.77;7.47;;;;;;;16.76;77.67;98126.50;7389644;19;20002;-73
2022/10/14 11:53:48;;;;;;;12.13;8.07;;;;;;;16.82;77.90;98125.72;7388526;19;20021;-72